Current | Forecast
Updated: 7:00 AM JST on May 28, 2018
Observed at Aomori Airport, Japan
Temperature 54°F
Humidity 82%
Dew Point 48°F
Wind NE at 5 mph
Pressure 29.89 in (Falling)
Conditions Mostly Cloudy
Visibility 6.2 miles
UV 1 out of 16
Clouds (FEW) : 100 ft
Mostly Cloudy (BKN) : 7000 ft
Yesterday's Maximum 64°F
Yesterday's Minimum 48°F approx.
Yesterday's Heating Degree Days 9 approx.
Sunrise4:07 AM JST
Sunset6:58 PM JST
Moon Rise5:29 PM JST
Moon Set3:30 AM JST
Moon PhaseMoon Phase
Waxing Gibbous
Raw METARMETAR RJSA 272200Z 05004KT 360V070 9999 FEW001 BKN070 BKN/// 12/09 Q1012


Monday
. High: 61° F.
Tuesday
. High: 62° F.
Wednesday
. High: 59° F.
Thursday
. High: 59° F.
Friday
. High: 60° F.
Saturday
. High: 60° F.
Sunday
. High: 55° F.
Monday
. High: 55° F.

Units: English | Metric

Find the Weather for any City, State or Zipcode, or Country:

U.S. State List | Severe Weather | Tropical Storms | Ski Conditions
United States | Canada | Central America | South America | Asia | Europe | Australia | Africa | Islands

Weather Underground

© Copyright 2018
The Weather Company, LLC